Vale, Oregon
Current Conditions -  °F | °C
As of 7:53 PM on Tuesday 21 Oct 2014 (Local Time) from KONO Reporting Station
Clear Clear  
Wind Chill: 55°   Ceiling: Unl
Heat Index: 55°   Visibility: 10mi
Dew Point: 35°   Wind: 5mph
Humidity: 47%   Direction: NA
Pressure: 30.03"   Gusts: NA
Location:  43.98°N, 117.24°W
Report Text: KONO 220153Z AUTO VRB04KT 10SM CLR 13/02 A3003 RMK AO2 SLP171 T01280017
Loading
Personal Weather Stations






























Interactive Weather Map
Tropical Storm Tracking
New forecast layout! Learn more

10-Day Weather Forecast

Advertisements
Track Severe Weather on mobile